sensor_id;sensor_type;location;lat;lon;timestamp;pressure;altitude;pressure_sealevel;temperature;humidity
9035;BME280;4552;43.422;24.592;2023-02-21T15:07:43;99543.53;;;19.42;29.79
9035;BME280;4552;43.422;24.592;2023-02-21T15:10:22;99534.25;;;19.34;30.14
9035;BME280;4552;43.422;24.592;2023-02-21T15:12:51;99554.13;;;19.42;30.03
9035;BME280;4552;43.422;24.592;2023-02-21T15:15:25;99550.69;;;19.40;29.92
9035;BME280;4552;43.422;24.592;2023-02-21T15:18:04;99562.38;;;19.38;30.28
9035;BME280;4552;43.422;24.592;2023-02-21T15:20:32;99562.66;;;19.16;30.38
9035;BME280;4552;43.422;24.592;2023-02-21T15:23:10;99574.97;;;19.17;30.52
9035;BME280;4552;43.422;24.592;2023-02-21T15:25:42;99558.59;;;19.09;30.70
9035;BME280;4552;43.422;24.592;2023-02-21T15:28:24;99563.16;;;19.07;30.95
9035;BME280;4552;43.422;24.592;2023-02-21T15:30:58;99571.50;;;19.00;30.97
9035;BME280;4552;43.422;24.592;2023-02-21T15:33:29;99562.81;;;18.80;31.17
9035;BME280;4552;43.422;24.592;2023-02-21T15:36:00;99579.09;;;18.90;31.35
9035;BME280;4552;43.422;24.592;2023-02-21T15:38:34;99566.56;;;18.76;31.52
9035;BME280;4552;43.422;24.592;2023-02-21T15:41:07;99581.16;;;18.68;31.58
9035;BME280;4552;43.422;24.592;2023-02-21T15:43:45;99569.31;;;18.58;32.07
9035;BME280;4552;43.422;24.592;2023-02-21T15:46:21;99578.03;;;18.60;31.89
9035;BME280;4552;43.422;24.592;2023-02-21T15:48:49;99586.22;;;18.55;32.05
9035;BME280;4552;43.422;24.592;2023-02-21T15:51:19;99562.44;;;18.37;32.42
9035;BME280;4552;43.422;24.592;2023-02-21T15:54:09;99595.28;;;18.51;32.41
9035;BME280;4552;43.422;24.592;2023-02-21T15:56:36;99576.09;;;18.29;32.58
9035;BME280;4552;43.422;24.592;2023-02-21T15:59:18;99578.34;;;18.20;33.23
9035;BME280;4552;43.422;24.592;2023-02-21T16:02:14;99575.06;;;18.15;33.00
9035;BME280;4552;43.422;24.592;2023-02-21T16:04:45;99603.75;;;18.24;33.59
9035;BME280;4552;43.422;24.592;2023-02-21T16:07:18;99589.88;;;18.02;33.61
9035;BME280;4552;43.422;24.592;2023-02-21T16:09:58;99590.28;;;17.93;33.56
9035;BME280;4552;43.422;24.592;2023-02-21T16:12:30;99589.75;;;17.86;33.92
9035;BME280;4552;43.422;24.592;2023-02-21T16:15:00;99601.47;;;17.81;34.33
9035;BME280;4552;43.422;24.592;2023-02-21T16:17:44;99605.50;;;17.71;34.08
9035;BME280;4552;43.422;24.592;2023-02-21T16:20:16;99625.16;;;17.84;34.36
9035;BME280;4552;43.422;24.592;2023-02-21T16:22:45;99611.53;;;17.74;34.59
9035;BME280;4552;43.422;24.592;2023-02-21T16:25:18;99619.69;;;17.70;34.59
9035;BME280;4552;43.422;24.592;2023-02-21T16:27:48;99637.84;;;17.59;35.08
9035;BME280;4552;43.422;24.592;2023-02-21T16:30:23;99653.59;;;17.62;35.11
9035;BME280;4552;43.422;24.592;2023-02-21T16:32:53;99630.81;;;17.39;35.09
9035;BME280;4552;43.422;24.592;2023-02-21T16:35:25;99659.59;;;17.47;35.58
9035;BME280;4552;43.422;24.592;2023-02-21T16:37:55;99634.41;;;17.18;35.97
9035;BME280;4552;43.422;24.592;2023-02-21T16:40:31;99663.97;;;17.27;36.02
9035;BME280;4552;43.422;24.592;2023-02-21T16:42:59;99650.34;;;17.16;36.29
9035;BME280;4552;43.422;24.592;2023-02-21T16:45:27;99637.03;;;16.99;36.25
9035;BME280;4552;43.422;24.592;2023-02-21T16:47:55;99630.72;;;16.83;36.83
9035;BME280;4552;43.422;24.592;2023-02-21T16:50:27;99665.88;;;16.85;36.91
9035;BME280;4552;43.422;24.592;2023-02-21T16:52:56;99666.41;;;16.73;37.28
9035;BME280;4552;43.422;24.592;2023-02-21T16:55:26;99660.91;;;16.58;37.72
9035;BME280;4552;43.422;24.592;2023-02-21T16:57:55;99658.41;;;16.55;37.69
9035;BME280;4552;43.422;24.592;2023-02-21T17:00:25;99650.22;;;16.39;38.34
9035;BME280;4552;43.422;24.592;2023-02-21T17:02:55;99624.50;;;16.23;38.35
9035;BME280;4552;43.422;24.592;2023-02-21T17:05:24;99641.63;;;16.34;38.19
9035;BME280;4552;43.422;24.592;2023-02-21T17:07:53;99617.56;;;16.20;38.43
9035;BME280;4552;43.422;24.592;2023-02-21T17:10:22;99634.16;;;16.24;38.29
9035;BME280;4552;43.422;24.592;2023-02-21T17:12:50;99614.47;;;16.11;38.34
9035;BME280;4552;43.422;24.592;2023-02-21T17:15:19;99618.06;;;16.08;38.24
9035;BME280;4552;43.422;24.592;2023-02-21T17:17:49;99639.63;;;16.19;38.23
9035;BME280;4552;43.422;24.592;2023-02-21T17:20:21;99637.09;;;16.16;38.51
9035;BME280;4552;43.422;24.592;2023-02-21T17:22:52;99661.50;;;16.23;38.03
9035;BME280;4552;43.422;24.592;2023-02-21T17:25:27;99640.56;;;15.97;38.72
9035;BME280;4552;43.422;24.592;2023-02-21T17:28:04;99644.53;;;15.85;39.15
9035;BME280;4552;43.422;24.592;2023-02-21T17:30:34;99670.16;;;15.83;39.51
9035;BME280;4552;43.422;24.592;2023-02-21T17:33:03;99627.38;;;15.52;39.92
9035;BME280;4552;43.422;24.592;2023-02-21T17:35:34;99631.31;;;15.42;40.28
9035;BME280;4552;43.422;24.592;2023-02-21T17:38:03;99637.47;;;15.64;39.80
9035;BME280;4552;43.422;24.592;2023-02-21T17:40:48;99630.00;;;15.75;39.59
9035;BME280;4552;43.422;24.592;2023-02-21T17:43:17;99632.44;;;15.80;39.36
9035;BME280;4552;43.422;24.592;2023-02-21T17:45:47;99617.34;;;15.83;39.19
9035;BME280;4552;43.422;24.592;2023-02-21T17:48:18;99622.38;;;15.89;38.66
9035;BME280;4552;43.422;24.592;2023-02-21T17:50:50;99634.16;;;16.02;38.87
9035;BME280;4552;43.422;24.592;2023-02-21T17:53:18;99609.00;;;15.94;38.54
9035;BME280;4552;43.422;24.592;2023-02-21T17:55:47;99620.28;;;15.97;38.99
9035;BME280;4552;43.422;24.592;2023-02-21T17:58:29;99603.47;;;15.78;39.17
9035;BME280;4552;43.422;24.592;2023-02-21T18:00:57;99601.41;;;15.86;38.62
9035;BME280;4552;43.422;24.592;2023-02-21T18:03:26;99617.56;;;15.99;38.84
9035;BME280;4552;43.422;24.592;2023-02-21T18:05:56;99570.69;;;15.84;38.95
9035;BME280;4552;43.422;24.592;2023-02-21T18:08:29;99613.03;;;16.02;38.71
9035;BME280;4552;43.422;24.592;2023-02-21T18:11:07;99634.97;;;16.04;38.67
9035;BME280;4552;43.422;24.592;2023-02-21T18:13:36;99618.69;;;15.93;38.84
9035;BME280;4552;43.422;24.592;2023-02-21T18:16:04;99620.41;;;15.94;38.82
9035;BME280;4552;43.422;24.592;2023-02-21T18:18:33;99632.44;;;16.01;39.07
9035;BME280;4552;43.422;24.592;2023-02-21T18:21:03;99632.00;;;15.90;39.38
9035;BME280;4552;43.422;24.592;2023-02-21T18:23:33;99623.28;;;15.88;39.09
9035;BME280;4552;43.422;24.592;2023-02-21T18:26:02;99608.00;;;15.75;39.22
9035;BME280;4552;43.422;24.592;2023-02-21T18:28:44;99642.63;;;15.89;39.33
9035;BME280;4552;43.422;24.592;2023-02-21T18:31:14;99654.72;;;15.94;39.04
9035;BME280;4552;43.422;24.592;2023-02-21T18:33:41;99630.75;;;15.79;39.17
9035;BME280;4552;43.422;24.592;2023-02-21T18:36:10;99640.31;;;15.81;39.08
9035;BME280;4552;43.422;24.592;2023-02-21T18:38:39;99634.66;;;15.90;38.69
9035;BME280;4552;43.422;24.592;2023-02-21T18:41:10;99651.06;;;15.98;38.69
9035;BME280;4552;43.422;24.592;2023-02-21T18:43:41;99655.78;;;15.90;38.71
9035;BME280;4552;43.422;24.592;2023-02-21T18:46:15;99650.75;;;15.84;39.14
9035;BME280;4552;43.422;24.592;2023-02-21T18:48:43;99637.22;;;15.70;38.75
9035;BME280;4552;43.422;24.592;2023-02-21T18:51:13;99638.28;;;15.66;38.82
9035;BME280;4552;43.422;24.592;2023-02-21T18:53:45;99648.94;;;15.63;38.68
9035;BME280;4552;43.422;24.592;2023-02-21T18:56:24;99646.06;;;15.69;38.35
9035;BME280;4552;43.422;24.592;2023-02-21T18:58:51;99670.88;;;15.87;38.45
9035;BME280;4552;43.422;24.592;2023-02-21T19:01:26;99691.09;;;16.09;38.23
9035;BME280;4552;43.422;24.592;2023-02-21T19:03:53;99696.19;;;15.92;38.45
9035;BME280;4552;43.422;24.592;2023-02-21T19:06:22;99676.69;;;15.73;38.45
9035;BME280;4552;43.422;24.592;2023-02-21T19:08:53;99703.75;;;15.78;38.60
9035;BME280;4552;43.422;24.592;2023-02-21T19:11:22;99683.72;;;15.51;39.06
9035;BME280;4552;43.422;24.592;2023-02-21T19:13:55;99706.94;;;15.65;39.23
9035;BME280;4552;43.422;24.592;2023-02-21T19:16:39;99693.34;;;15.52;39.32
9035;BME280;4552;43.422;24.592;2023-02-21T19:19:32;99709.50;;;15.43;39.65
9035;BME280;4552;43.422;24.592;2023-02-21T19:22:02;99692.88;;;15.16;40.10
9035;BME280;4552;43.422;24.592;2023-02-21T19:24:38;99709.78;;;15.11;40.24
9035;BME280;4552;43.422;24.592;2023-02-21T19:27:07;99689.25;;;14.96;40.50
9035;BME280;4552;43.422;24.592;2023-02-21T19:29:42;99723.66;;;15.16;40.48
9035;BME280;4552;43.422;24.592;2023-02-21T19:32:14;99717.97;;;15.03;40.36
9035;BME280;4552;43.422;24.592;2023-02-21T19:37:49;99719.75;;;14.77;41.14
9035;BME280;4552;43.422;24.592;2023-02-21T19:40:19;99735.03;;;14.92;40.67
9035;BME280;4552;43.422;24.592;2023-02-21T19:42:48;99717.25;;;14.98;40.44
9035;BME280;4552;43.422;24.592;2023-02-21T19:45:18;99748.22;;;14.92;40.98
9035;BME280;4552;43.422;24.592;2023-02-21T19:47:48;99725.91;;;14.77;40.99
9035;BME280;4552;43.422;24.592;2023-02-21T19:50:17;99728.75;;;14.71;40.96
9035;BME280;4552;43.422;24.592;2023-02-21T19:52:50;99726.47;;;14.61;41.31
9035;BME280;4552;43.422;24.592;2023-02-21T19:55:19;99736.44;;;14.77;41.07
9035;BME280;4552;43.422;24.592;2023-02-21T19:57:47;99744.81;;;14.64;41.46
9035;BME280;4552;43.422;24.592;2023-02-21T20:00:15;99736.41;;;14.53;41.19
9035;BME280;4552;43.422;24.592;2023-02-21T20:02:44;99755.13;;;14.44;42.08
9035;BME280;4552;43.422;24.592;2023-02-21T20:05:13;99761.78;;;14.28;42.46
9035;BME280;4552;43.422;24.592;2023-02-21T20:07:42;99755.63;;;14.29;41.95
9035;BME280;4552;43.422;24.592;2023-02-21T20:10:10;99764.47;;;14.26;42.29
9035;BME280;4552;43.422;24.592;2023-02-21T20:12:39;99770.69;;;14.24;42.26
9035;BME280;4552;43.422;24.592;2023-02-21T20:15:07;99760.31;;;14.18;42.34
9035;BME280;4552;43.422;24.592;2023-02-21T20:17:36;99761.81;;;13.97;42.88
9035;BME280;4552;43.422;24.592;2023-02-21T20:20:04;99786.19;;;13.74;43.75
9035;BME280;4552;43.422;24.592;2023-02-21T20:22:37;99789.53;;;13.81;43.78
9035;BME280;4552;43.422;24.592;2023-02-21T20:25:06;99769.94;;;13.60;43.94
9035;BME280;4552;43.422;24.592;2023-02-21T20:27:33;99778.44;;;13.70;44.05
9035;BME280;4552;43.422;24.592;2023-02-21T20:30:00;99787.25;;;13.69;44.21
9035;BME280;4552;43.422;24.592;2023-02-21T20:32:28;99779.31;;;13.70;44.03
9035;BME280;4552;43.422;24.592;2023-02-21T20:34:56;99750.59;;;13.63;43.93
9035;BME280;4552;43.422;24.592;2023-02-21T20:37:23;99744.56;;;13.59;44.29
9035;BME280;4552;43.422;24.592;2023-02-21T20:39:52;99752.81;;;13.76;43.88
9035;BME280;4552;43.422;24.592;2023-02-21T20:42:19;99744.94;;;13.76;44.20
9035;BME280;4552;43.422;24.592;2023-02-21T20:44:50;99745.47;;;13.87;43.71
9035;BME280;4552;43.422;24.592;2023-02-21T20:47:19;99757.16;;;14.07;44.14
9035;BME280;4552;43.422;24.592;2023-02-21T20:49:49;99765.78;;;14.12;43.73
9035;BME280;4552;43.422;24.592;2023-02-21T20:52:17;99744.03;;;14.05;43.72
9035;BME280;4552;43.422;24.592;2023-02-21T20:54:44;99763.69;;;14.23;43.51
9035;BME280;4552;43.422;24.592;2023-02-21T20:57:13;99741.84;;;14.19;43.63
9035;BME280;4552;43.422;24.592;2023-02-21T20:59:40;99775.38;;;14.42;43.39
9035;BME280;4552;43.422;24.592;2023-02-21T21:02:08;99761.19;;;14.47;43.13
9035;BME280;4552;43.422;24.592;2023-02-21T21:04:37;99754.13;;;14.48;43.07
9035;BME280;4552;43.422;24.592;2023-02-21T21:07:10;99774.09;;;14.55;42.69
9035;BME280;4552;43.422;24.592;2023-02-21T21:09:38;99773.28;;;14.53;43.00
9035;BME280;4552;43.422;24.592;2023-02-21T21:12:07;99773.47;;;14.47;42.91
9035;BME280;4552;43.422;24.592;2023-02-21T21:14:38;99774.41;;;14.46;43.00
9035;BME280;4552;43.422;24.592;2023-02-21T21:17:08;99775.28;;;14.45;43.04
9035;BME280;4552;43.422;24.592;2023-02-21T21:19:39;99776.94;;;14.49;43.13
9035;BME280;4552;43.422;24.592;2023-02-21T21:22:08;99763.97;;;14.14;43.67
9035;BME280;4552;43.422;24.592;2023-02-21T21:24:37;99754.81;;;13.98;43.86
9035;BME280;4552;43.422;24.592;2023-02-21T21:27:05;99766.13;;;14.01;44.10
9035;BME280;4552;43.422;24.592;2023-02-21T21:29:37;99769.94;;;13.89;44.73
9035;BME280;4552;43.422;24.592;2023-02-21T21:32:07;99739.28;;;13.59;44.83
9035;BME280;4552;43.422;24.592;2023-02-21T21:34:35;99733.94;;;13.62;44.54
9035;BME280;4552;43.422;24.592;2023-02-21T21:37:04;99734.03;;;13.59;44.66
9035;BME280;4552;43.422;24.592;2023-02-21T21:39:33;99743.41;;;13.68;45.20
9035;BME280;4552;43.422;24.592;2023-02-21T21:42:06;99740.56;;;13.75;45.16
9035;BME280;4552;43.422;24.592;2023-02-21T21:44:38;99745.06;;;13.72;44.98
9035;BME280;4552;43.422;24.592;2023-02-21T21:47:09;99726.94;;;13.63;45.04
9035;BME280;4552;43.422;24.592;2023-02-21T21:49:42;99716.28;;;13.67;44.45
9035;BME280;4552;43.422;24.592;2023-02-21T21:52:10;99745.47;;;13.87;45.22
9035;BME280;4552;43.422;24.592;2023-02-21T21:54:41;99722.00;;;13.81;45.06
9035;BME280;4552;43.422;24.592;2023-02-21T21:57:11;99745.19;;;13.97;44.97
9035;BME280;4552;43.422;24.592;2023-02-21T21:59:41;99721.75;;;13.89;44.85
9035;BME280;4552;43.422;24.592;2023-02-21T22:02:08;99720.41;;;14.04;44.56
9035;BME280;4552;43.422;24.592;2023-02-21T22:04:37;99762.69;;;14.27;44.42
9035;BME280;4552;43.422;24.592;2023-02-21T22:07:04;99760.69;;;14.35;44.39
9035;BME280;4552;43.422;24.592;2023-02-21T22:09:35;99737.47;;;14.20;44.62
9035;BME280;4552;43.422;24.592;2023-02-21T22:12:04;99749.28;;;14.34;44.53
9035;BME280;4552;43.422;24.592;2023-02-21T22:14:32;99759.59;;;14.42;44.69
9035;BME280;4552;43.422;24.592;2023-02-21T22:17:02;99757.97;;;14.38;44.46
9035;BME280;4552;43.422;24.592;2023-02-21T22:19:29;99739.66;;;14.06;45.09
9035;BME280;4552;43.422;24.592;2023-02-21T22:21:59;99746.81;;;14.01;44.94
9035;BME280;4552;43.422;24.592;2023-02-21T22:24:34;99749.44;;;14.01;44.73
9035;BME280;4552;43.422;24.592;2023-02-21T22:27:07;99767.16;;;14.25;44.77
9035;BME280;4552;43.422;24.592;2023-02-21T22:29:36;99764.19;;;14.06;45.08
9035;BME280;4552;43.422;24.592;2023-02-21T22:32:06;99753.09;;;13.67;45.63
9035;BME280;4552;43.422;24.592;2023-02-21T22:34:34;99746.28;;;13.60;45.88
9035;BME280;4552;43.422;24.592;2023-02-21T22:37:02;99744.66;;;13.56;46.11
9035;BME280;4552;43.422;24.592;2023-02-21T22:39:29;99752.28;;;13.65;45.98
9035;BME280;4552;43.422;24.592;2023-02-21T22:41:58;99788.69;;;13.79;45.78
9035;BME280;4552;43.422;24.592;2023-02-21T22:44:29;99775.38;;;13.54;46.13
9035;BME280;4552;43.422;24.592;2023-02-21T22:46:57;99761.16;;;13.31;46.51
9035;BME280;4552;43.422;24.592;2023-02-21T22:49:26;99770.38;;;13.13;46.98
9035;BME280;4552;43.422;24.592;2023-02-21T22:51:55;99783.16;;;13.27;47.08
9035;BME280;4552;43.422;24.592;2023-02-21T22:54:22;99761.97;;;13.01;47.37
9035;BME280;4552;43.422;24.592;2023-02-21T22:56:49;99788.38;;;12.95;47.78
9035;BME280;4552;43.422;24.592;2023-02-21T22:59:22;99766.25;;;13.05;47.26
9035;BME280;4552;43.422;24.592;2023-02-21T23:01:49;99756.97;;;12.90;47.54
9035;BME280;4552;43.422;24.592;2023-02-21T23:04:17;99787.00;;;12.80;47.92
9035;BME280;4552;43.422;24.592;2023-02-21T23:06:51;99770.22;;;12.51;48.52
9035;BME280;4552;43.422;24.592;2023-02-21T23:09:20;99795.34;;;12.62;48.72
9035;BME280;4552;43.422;24.592;2023-02-21T23:11:51;99787.81;;;12.82;48.25
9035;BME280;4552;43.422;24.592;2023-02-21T23:14:19;99772.69;;;12.57;48.26
9035;BME280;4552;43.422;24.592;2023-02-21T23:19:18;99796.16;;;12.64;48.68
9035;BME280;4552;43.422;24.592;2023-02-21T23:21:48;99787.63;;;12.56;48.54
9035;BME280;4552;43.422;24.592;2023-02-21T23:24:19;99788.16;;;12.32;49.08
9035;BME280;4552;43.422;24.592;2023-02-21T23:26:51;99782.06;;;12.32;49.25
9035;BME280;4552;43.422;24.592;2023-02-21T23:29:21;99770.41;;;12.06;49.60
9035;BME280;4552;43.422;24.592;2023-02-21T23:31:50;99766.03;;;12.07;49.51
9035;BME280;4552;43.422;24.592;2023-02-21T23:34:18;99791.78;;;12.28;49.63
9035;BME280;4552;43.422;24.592;2023-02-21T23:36:46;99764.44;;;11.98;49.86
9035;BME280;4552;43.422;24.592;2023-02-21T23:39:13;99778.50;;;11.96;49.97
9035;BME280;4552;43.422;24.592;2023-02-21T23:41:43;99780.16;;;12.00;49.77
9035;BME280;4552;43.422;24.592;2023-02-21T23:44:13;99801.75;;;12.12;50.17
9035;BME280;4552;43.422;24.592;2023-02-21T23:46:41;99767.88;;;12.02;49.95
9035;BME280;4552;43.422;24.592;2023-02-21T23:49:13;99781.72;;;12.08;49.78
9035;BME280;4552;43.422;24.592;2023-02-21T23:51:42;99766.03;;;12.07;50.02
9035;BME280;4552;43.422;24.592;2023-02-21T23:54:11;99774.66;;;12.10;49.83
9035;BME280;4552;43.422;24.592;2023-02-21T23:56:46;99793.69;;;12.20;49.89
9035;BME280;4552;43.422;24.592;2023-02-21T23:59:13;99774.53;;;12.16;49.60
